Stations météo

Publicité
Lus-La-Croix-Haute, France (7587): Température de l'air & dewpoint: 12.12.2017 21:00:00 - 18.12.2017 21:00:00 (CET)Lus-La-Croix-Haute, France (7587): Vitesse du vent & gusts: 12.12.2017 21:00:00 - 18.12.2017 21:00:00 (CET)Lus-La-Croix-Haute, France (7587): Direction du vent: 12.12.2017 21:00:00 - 18.12.2017 21:00:00 (CET)Lus-La-Croix-Haute, France (7587): Quantités de précipitations: 12.12.2017 21:00:00 - 18.12.2017 21:00:00 (CET)
Date & Time tt [°C] td [°C] ff [km/h] ff [knt] fx [km/h] fx [knt] dd rr [mm]
18.12.2017 21:00:00 - - - - - - - -
18.12.2017 20:00:00 -1,5 -3,2 11 6 39 21 NNW 0,0
18.12.2017 19:00:00 -2,1 -3,1 18 10 37 20 NW -
18.12.2017 18:00:00 -1,0 -2,1 21 11 41 22 NW 0,0
18.12.2017 17:00:00 0,8 -1,8 11 6 37 20 NNE 0,0
18.12.2017 16:00:00 1,2 -1,0 13 7 48 26 NNW 0,0
18.12.2017 15:00:00 1,9 0,1 13 7 37 20 NNW 0,0
18.12.2017 14:00:00 2,6 0,3 13 7 31 17 NNW 0,0
18.12.2017 13:00:00 1,0 0,1 9 5 15 8 NNW -
18.12.2017 12:00:00 -0,7 -2,0 2 1 5 3 WNW 0,0
18.12.2017 11:00:00 -1,8 -2,9 2 1 8 4 NNW 0,0
18.12.2017 10:00:00 -2,8 -3,5 4 2 13 7 SE 0,6
18.12.2017 09:00:00 -3,7 -4,7 4 2 22 12 ESE 0,8
18.12.2017 08:00:00 -4,2 -5,4 8 4 24 13 N 0,4
18.12.2017 07:00:00 -4,8 -7,2 4 2 16 9 NNE -
18.12.2017 06:00:00 -5,1 -7,2 11 6 35 19 WNW 0,0
18.12.2017 05:00:00 -4,7 -7,5 15 8 44 24 NNW 0,0
18.12.2017 04:00:00 -4,5 -6,8 13 7 39 21 NW 0,0
18.12.2017 03:00:00 -4,0 -6,5 9 5 24 13 NNW 0,0
18.12.2017 02:00:00 -3,8 -6,1 11 6 28 15 NW 0,0
18.12.2017 01:00:00 -3,5 -6,3 9 5 35 19 NNW -
18.12.2017 00:00:00 -3,4 -6,2 13 7 29 16 NNW 0,0
17.12.2017 23:00:00 -3,2 -6,5 8 4 26 14 N 0,0
17.12.2017 22:00:00 -2,9 -6,7 8 4 44 24 N 0,0
17.12.2017 21:00:00 -2,8 -6,4 15 8 39 21 N 0,0
17.12.2017 20:00:00 -2,9 -6,4 9 5 35 19 NNW 0,0
17.12.2017 19:00:00 -2,8 -6,1 11 6 35 19 N -
17.12.2017 18:00:00 -2,9 -6,5 15 8 44 24 N 0,0
17.12.2017 17:00:00 -2,8 -6,4 13 7 44 24 NNW 0,0
17.12.2017 16:00:00 -2,2 -6,8 8 4 39 21 N 0,0
17.12.2017 15:00:00 -2,3 -5,6 15 8 39 21 NNW 0,0
17.12.2017 14:00:00 -2,8 -6,4 24 13 57 31 NNW 0,0
17.12.2017 13:00:00 -2,6 -6,8 15 8 37 20 NNW -
17.12.2017 12:00:00 -2,8 -6,8 16 9 41 22 NNW 0,0
17.12.2017 11:00:00 -3,0 -6,8 16 9 34 18 NNW 0,0
17.12.2017 10:00:00 -3,0 -6,5 16 9 44 24 NNW 0,0
17.12.2017 09:00:00 -3,5 -7,3 18 10 52 28 N 0,0
17.12.2017 08:00:00 -3,8 -6,0 21 11 44 24 NNW 0,0
17.12.2017 07:00:00 -3,1 -6,1 22 12 59 32 N -
17.12.2017 06:00:00 -3,2 -5,5 21 11 68 37 NNW 0,0
17.12.2017 05:00:00 -3,1 -5,0 28 15 72 39 NNW 0,0
17.12.2017 04:00:00 -3,1 -5,1 21 11 55 30 NNW 0,8
17.12.2017 03:00:00 -2,7 -4,0 24 13 57 31 NNW 0,2
17.12.2017 02:00:00 -2,4 -4,0 24 13 61 33 NNW 0,0
17.12.2017 01:00:00 -2,3 -4,2 16 9 44 24 NNW -
17.12.2017 00:00:00 -2,4 -4,3 11 6 34 18 NNW 0,0
16.12.2017 23:00:00 -2,1 -4,4 11 6 55 30 NNW 0,0
16.12.2017 22:00:00 -2,2 -4,5 16 9 48 26 NNW 0,0
16.12.2017 21:00:00 -2,4 -4,0 22 12 46 25 NNW 0,0
16.12.2017 20:00:00 -2,2 -4,9 13 7 41 22 NNW 0,0
16.12.2017 19:00:00 -2,0 -5,2 15 8 39 21 N -
16.12.2017 18:00:00 -1,9 -5,7 13 7 41 22 N 0,0
16.12.2017 17:00:00 -1,7 -5,2 16 9 44 24 N 0,0
16.12.2017 16:00:00 -1,7 -4,0 18 10 52 28 NNW 0,0
16.12.2017 15:00:00 -0,7 -3,9 21 11 48 26 NNW 0,0
16.12.2017 14:00:00 -0,8 -4,9 13 7 39 21 N 0,0
16.12.2017 13:00:00 -1,1 -4,3 15 8 48 26 N -
16.12.2017 12:00:00 -1,6 -4,1 18 10 44 24 NNW 0,0
16.12.2017 11:00:00 -1,7 -4,4 21 11 50 27 N 0,0
16.12.2017 10:00:00 -1,8 -4,0 16 9 46 25 N 0,0
16.12.2017 09:00:00 -2,1 -4,6 11 6 34 18 N 0,2
16.12.2017 08:00:00 -2,7 -4,6 9 5 46 25 NNW 0,0
16.12.2017 07:00:00 -2,4 -5,2 11 6 35 19 N -
16.12.2017 06:00:00 -2,1 -3,2 16 9 50 27 N 1,0
16.12.2017 05:00:00 -1,9 -2,5 15 8 29 16 NW 0,6
16.12.2017 04:00:00 -1,8 -2,5 13 7 29 16 NW 0,2
16.12.2017 03:00:00 -1,8 -2,2 11 6 24 13 WNW 0,8
16.12.2017 02:00:00 -2,1 -2,5 5 3 11 6 NW 0,0
16.12.2017 01:00:00 -2,8 -3,3 4 2 9 5 ESE -
16.12.2017 00:00:00 -2,4 -3,0 5 3 9 5 NNE 0,0
15.12.2017 23:00:00 -1,8 -2,2 4 2 8 4 NE 0,2
15.12.2017 22:00:00 -1,9 -2,5 2 1 4 2 ESE 0,4
15.12.2017 21:00:00 -2,0 -2,8 2 1 9 5 SSW 0,0
15.12.2017 20:00:00 -2,1 -3,1 5 3 9 5 NE 0,0
15.12.2017 19:00:00 -2,0 -3,3 4 2 18 10 SSE -
15.12.2017 18:00:00 -1,8 -2,8 8 4 22 12 N 0,0
15.12.2017 17:00:00 -0,7 -2,0 15 8 28 15 NW 0,0
15.12.2017 16:00:00 0,7 -1,7 8 4 21 11 NNW 0,0
15.12.2017 15:00:00 2,4 -0,9 8 4 22 12 NNW 0,0
15.12.2017 14:00:00 1,5 -1,4 11 6 28 15 NNW 0,0
15.12.2017 13:00:00 0,6 -1,2 11 6 26 14 NNW -
15.12.2017 12:00:00 0,8 -0,4 11 6 29 16 NW 0,2
15.12.2017 11:00:00 0,3 -0,4 13 7 24 13 NW 0,0
15.12.2017 10:00:00 0,0 -0,3 9 5 21 11 NW 0,0
15.12.2017 09:00:00 -0,4 -0,8 5 3 15 8 E 0,0
15.12.2017 08:00:00 0,0 -0,3 4 2 9 5 W 0,6
15.12.2017 07:00:00 0,0 -0,3 2 1 9 5 NNE -
15.12.2017 06:00:00 0,2 -0,2 4 2 35 19 NNE 3,0
15.12.2017 05:00:00 1,1 0,2 8 4 21 11 NW 3,0
15.12.2017 04:00:00 2,3 1,6 8 4 15 8 SE 0,6
15.12.2017 03:00:00 2,5 1,6 9 5 24 13 SSE 0,6
15.12.2017 02:00:00 2,8 1,6 8 4 28 15 ESE 0,6
15.12.2017 01:00:00 3,5 1,7 16 9 34 18 S -
15.12.2017 00:00:00 3,9 0,9 9 5 39 21 S 0,0
14.12.2017 23:00:00 2,9 0,9 8 4 26 14 S 0,0
14.12.2017 22:00:00 2,2 0,7 4 2 22 12 S 0,0
14.12.2017 21:00:00 2,6 0,8 5 3 26 14 SSW 0,0
14.12.2017 20:00:00 2,8 1,2 8 4 24 13 SSE 0,0
14.12.2017 19:00:00 1,7 1,0 8 4 13 7 SE -
14.12.2017 18:00:00 0,8 0,2 4 2 9 5 N 0,0
14.12.2017 17:00:00 1,3 0,4 2 1 15 8 N 0,0
14.12.2017 16:00:00 2,7 1,5 5 3 13 7 SSE 0,0
14.12.2017 15:00:00 2,6 1,7 4 2 5 3 ENE 0,0
14.12.2017 14:00:00 3,2 1,7 2 1 8 4 NNW 0,0
14.12.2017 13:00:00 2,9 1,7 2 1 9 5 W -
14.12.2017 12:00:00 1,5 1,1 5 3 9 5 E 0,0
14.12.2017 11:00:00 1,3 1,2 2 1 11 6 ESE 0,2
14.12.2017 10:00:00 0,3 0,2 4 2 11 6 NE 1,0
14.12.2017 09:00:00 0,2 0,1 4 2 8 4 ESE 1,0
14.12.2017 08:00:00 0,1 0,0 4 2 8 4 SSW 0,0
14.12.2017 07:00:00 0,0 -0,1 2 1 5 3 W -
14.12.2017 06:00:00 0,0 -0,1 2 1 8 4 WSW 0,2
14.12.2017 05:00:00 -0,1 -0,4 4 2 9 5 WSW 0,2
14.12.2017 04:00:00 -0,2 -0,5 4 2 5 3 NW 0,2
14.12.2017 03:00:00 -0,2 -0,5 2 1 5 3 SSW 1,0
14.12.2017 02:00:00 -0,2 -0,5 2 1 9 5 SSW 1,0
14.12.2017 01:00:00 -0,3 -0,6 2 1 9 5 WSW -
14.12.2017 00:00:00 -0,4 -0,8 2 1 11 6 W 1,0
13.12.2017 23:00:00 -0,5 -1,1 2 1 13 7 SE 0,8
13.12.2017 22:00:00 -0,6 -1,2 5 3 18 10 SSW 2,0
13.12.2017 21:00:00 -0,8 -1,4 4 2 15 8 S 0,6
13.12.2017 20:00:00 -0,8 -1,6 5 3 13 7 S 0,4
13.12.2017 19:00:00 -0,6 -1,7 2 1 9 5 S -
13.12.2017 18:00:00 -0,5 -1,8 4 2 9 5 E 0,0
13.12.2017 17:00:00 0,1 -2,1 4 2 11 6 NW 0,0
13.12.2017 16:00:00 1,7 -3,0 4 2 9 5 SSE 0,0
13.12.2017 15:00:00 2,1 -4,6 4 2 11 6 SE 0,0
13.12.2017 14:00:00 2,8 -3,6 4 2 13 7 ESE 0,0
13.12.2017 13:00:00 2,0 -4,1 4 2 9 5 S -
13.12.2017 12:00:00 1,0 -4,6 4 2 9 5 WSW 0,0
13.12.2017 11:00:00 -0,7 -4,9 4 2 8 4 S 0,0
13.12.2017 10:00:00 -3,0 -5,8 2 1 8 4 W 0,0
13.12.2017 09:00:00 -6,1 -7,8 2 1 8 4 E 0,0
13.12.2017 08:00:00 -5,6 -7,6 4 2 13 7 NNW 0,0
13.12.2017 07:00:00 -4,8 -7,1 8 4 16 9 NNE -
13.12.2017 06:00:00 -5,1 -6,6 8 4 16 9 N 0,0
13.12.2017 05:00:00 -5,3 -6,8 4 2 13 7 NE 0,0
13.12.2017 04:00:00 -4,8 -6,5 4 2 24 13 NW 0,0
13.12.2017 03:00:00 -3,9 -5,4 9 5 22 12 NNW 0,0
13.12.2017 02:00:00 -4,4 -5,9 8 4 24 13 N 0,0
13.12.2017 01:00:00 -3,6 -5,1 9 5 18 10 NW -
13.12.2017 00:00:00 -2,9 -4,9 11 6 29 16 NW 0,0
12.12.2017 23:00:00 -2,3 -4,0 16 9 35 19 NW 0,0
12.12.2017 22:00:00 -1,9 -3,8 21 11 37 20 NW 0,0
12.12.2017 21:00:00 -1,7 -3,0 16 9 41 22 NW 0,0

tt = Température de l'air
td = dewpoint
ff = Vitesse du vent
fx = gusts
dd = Direction du vent
rr = Quantités de précipitations

stations d'obs. à proximité